Sfl Kate — VRIX3 — position and weather

sailwx.info

Track history (hours):
 
Tides and Currents Weather Stations Pressure Air Temp Water Temp Dewpoint Dewpoint Depression Visibility Wind Speed Wind Dir Waves Ship Positions

Sfl Kate

Last reported at 2017-Sep-20 04:24 UTC. Time now 2017-Sep-21 01:42 UTC.
Position N 39°08' E 003°56'.

Length 189 m; draft 11 m.

Type: Cargo ship. MMSI: 477434500.

Date/timePositionNaut miles runAvg speedWind from/ knotsBaromVisibWave heightAir tempDewpointWater temp
2017-Sep-20 04:24N 39°08' E 003°56'613.9
2017-Sep-20 04:00N 39°05' E 003°50'714.1
2017-Sep-20 03:30N 39°01' E 003°43'714.0
2017-Sep-20 03:00N 38°57' E 003°35'714.0
2017-Sep-20 02:30N 38°53' E 003°27'714.0
2017-Sep-20 02:00N 38°50' E 003°20'713.8
2017-Sep-20 01:30N 38°46' E 003°12'713.9
2017-Sep-20 01:00N 38°42' E 003°05'42813.2
2017-Sep-18 16:31N 35°60' W 005°13'015.8
2017-Sep-18 16:30N 35°60' W 005°13'1217.6
2017-Sep-18 15:51N 35°57' W 005°27'  
2017-Sep-15 22:02N 38°02' W 023°56'113.3
2017-Sep-15 21:59N 38°02' W 023°56'713.7
2017-Sep-15 21:30N 38°02' W 024°05'713.8
2017-Sep-15 21:00N 38°02' W 024°13'713.7
2017-Sep-15 20:31N 38°02' W 024°22'713.8
2017-Sep-15 20:00N 38°02' W 024°31'713.8
2017-Sep-15 19:30N 38°03' W 024°40'713.7
2017-Sep-15 19:00N 38°03' W 024°48'713.7
2017-Sep-15 18:30N 38°03' W 024°57'713.5
2017-Sep-15 18:01N 38°03' W 025°06'713.3
2017-Sep-15 17:31N 38°03' W 025°14'713.3
2017-Sep-15 17:01N 38°04' W 025°22'713.2
2017-Sep-15 16:31N 38°04' W 025°31'713.6
2017-Sep-15 16:01N 38°04' W 025°39'713.5
2017-Sep-15 15:30N 38°04' W 025°48'713.8
2017-Sep-15 15:00N 38°04' W 025°57'713.5
2017-Sep-15 14:30N 38°04' W 026°05'713.2
2017-Sep-15 14:01N 38°05' W 026°14'713.4
2017-Sep-15 13:30N 38°05' W 026°22'713.4
2017-Sep-15 13:00N 38°05' W 026°31'713.7
2017-Sep-15 12:31N 38°06' W 026°39'713.5
2017-Sep-15 12:00N 38°06' W 026°48'713.6
2017-Sep-15 11:30N 38°06' W 026°57'713.6
2017-Sep-15 11:00N 38°06' W 027°05'713.5
2017-Sep-15 10:30N 38°06' W 027°14'713.6
2017-Sep-15 10:00N 38°07' W 027°23'813.9
2017-Sep-15 09:24N 38°07' W 027°33'613.9
2017-Sep-15 09:00N 38°07' W 027°40'714.0
2017-Sep-15 08:30N 38°07' W 027°49'713.6
2017-Sep-15 08:01N 38°07' W 027°58'713.1
2017-Sep-15 07:30N 38°08' W 028°06'713.2
2017-Sep-15 07:00N 38°08' W 028°14'713.3
2017-Sep-15 06:30N 38°08' W 028°23'713.5
2017-Sep-15 06:00N 38°08' W 028°31'713.4
2017-Sep-15 05:30N 38°08' W 028°40'713.3
2017-Sep-15 05:00N 38°08' W 028°48'713.2
2017-Sep-15 04:30N 38°09' W 028°57'613.0
2017-Sep-15 04:00N 38°09' W 029°05'713.5
2017-Sep-15 03:30N 38°09' W 029°14'713.3
2017-Sep-15 03:00N 38°09' W 029°22'713.4
2017-Sep-15 02:30N 38°09' W 029°31'713.6
2017-Sep-15 02:00N 38°09' W 029°39'613.2
2017-Sep-15 01:31N 38°09' W 029°48'612.7
2017-Sep-15 01:00N 38°09' W 029°56'1212.9
2017-Sep-15 00:03N 38°08' W 030°11'112.8
2017-Sep-14 23:57N 38°08' W 030°13'613.3
2017-Sep-14 23:30N 38°08' W 030°21'713.1
2017-Sep-14 22:58N 38°07' W 030°29'  
Track history (hours):
 
Tides and Currents Weather Stations Pressure Air Temp Water Temp Dewpoint Dewpoint Depression Visibility Wind Speed Wind Dir Waves Ship Positions

Sfl Kate

Last reported at 2017-Sep-20 04:24 UTC. Time now 2017-Sep-21 01:42 UTC.
Position N 39°08' E 003°56'.

Length 189 m; draft 11 m.

Type: Cargo ship. MMSI: 477434500.

Date/timePositionNaut miles runAvg speedWind from/ knotsBaromVisibWave heightAir tempDewpointWater temp
2017-Sep-20 04:24N 39°08' E 003°56'613.9
2017-Sep-20 04:00N 39°05' E 003°50'714.1
2017-Sep-20 03:30N 39°01' E 003°43'714.0
2017-Sep-20 03:00N 38°57' E 003°35'714.0
2017-Sep-20 02:30N 38°53' E 003°27'714.0
2017-Sep-20 02:00N 38°50' E 003°20'713.8
2017-Sep-20 01:30N 38°46' E 003°12'713.9
2017-Sep-20 01:00N 38°42' E 003°05'42813.2
2017-Sep-18 16:31N 35°60' W 005°13'015.8
2017-Sep-18 16:30N 35°60' W 005°13'1217.6
2017-Sep-18 15:51N 35°57' W 005°27'  
2017-Sep-15 22:02N 38°02' W 023°56'113.3
2017-Sep-15 21:59N 38°02' W 023°56'713.7
2017-Sep-15 21:30N 38°02' W 024°05'713.8
2017-Sep-15 21:00N 38°02' W 024°13'713.7
2017-Sep-15 20:31N 38°02' W 024°22'713.8
2017-Sep-15 20:00N 38°02' W 024°31'713.8
2017-Sep-15 19:30N 38°03' W 024°40'713.7
2017-Sep-15 19:00N 38°03' W 024°48'713.7
2017-Sep-15 18:30N 38°03' W 024°57'713.5
2017-Sep-15 18:01N 38°03' W 025°06'713.3
2017-Sep-15 17:31N 38°03' W 025°14'713.3
2017-Sep-15 17:01N 38°04' W 025°22'713.2
2017-Sep-15 16:31N 38°04' W 025°31'713.6
2017-Sep-15 16:01N 38°04' W 025°39'713.5
2017-Sep-15 15:30N 38°04' W 025°48'713.8
2017-Sep-15 15:00N 38°04' W 025°57'713.5
2017-Sep-15 14:30N 38°04' W 026°05'713.2
2017-Sep-15 14:01N 38°05' W 026°14'713.4
2017-Sep-15 13:30N 38°05' W 026°22'713.4
2017-Sep-15 13:00N 38°05' W 026°31'713.7
2017-Sep-15 12:31N 38°06' W 026°39'713.5
2017-Sep-15 12:00N 38°06' W 026°48'713.6
2017-Sep-15 11:30N 38°06' W 026°57'713.6
2017-Sep-15 11:00N 38°06' W 027°05'713.5
2017-Sep-15 10:30N 38°06' W 027°14'713.6
2017-Sep-15 10:00N 38°07' W 027°23'813.9
2017-Sep-15 09:24N 38°07' W 027°33'613.9
2017-Sep-15 09:00N 38°07' W 027°40'714.0
2017-Sep-15 08:30N 38°07' W 027°49'713.6
2017-Sep-15 08:01N 38°07' W 027°58'713.1
2017-Sep-15 07:30N 38°08' W 028°06'713.2
2017-Sep-15 07:00N 38°08' W 028°14'713.3
2017-Sep-15 06:30N 38°08' W 028°23'713.5
2017-Sep-15 06:00N 38°08' W 028°31'713.4
2017-Sep-15 05:30N 38°08' W 028°40'713.3
2017-Sep-15 05:00N 38°08' W 028°48'713.2
2017-Sep-15 04:30N 38°09' W 028°57'613.0
2017-Sep-15 04:00N 38°09' W 029°05'713.5
2017-Sep-15 03:30N 38°09' W 029°14'713.3
2017-Sep-15 03:00N 38°09' W 029°22'713.4
2017-Sep-15 02:30N 38°09' W 029°31'713.6
2017-Sep-15 02:00N 38°09' W 029°39'613.2
2017-Sep-15 01:31N 38°09' W 029°48'612.7
2017-Sep-15 01:00N 38°09' W 029°56'1212.9
2017-Sep-15 00:03N 38°08' W 030°11'112.8
2017-Sep-14 23:57N 38°08' W 030°13'613.3
2017-Sep-14 23:30N 38°08' W 030°21'713.1
2017-Sep-14 22:58N 38°07' W 030°29'  

Dump ship's entire track history